Pagrindinis puslapis
METAR-TAF:

METAR-TAF

Oro uostai :

Tan Son Nhat oro uostas

Hošiminas, Vietnamas

platuma: 10-49N, ilguma: 106-40E, Aukštis: 19 m

Dabartinis oras

Ataskaita buvo paskelbta 16 minutes, ne 14:30 UTC
Vėjas 1 kt nuo kintamojo kryptimis
Temperatūra 27°C
Drėgmė 94%
Slėgis 1012 hPa
Matomumas 10 km arba daugiau
Mažai debesys ne aukštis 1500 ft
Išsisklaidę debesys ne aukštis 4000 ft

METAR: VVTS 291430Z VRB01KT 9999 FEW015 SCT040 27/26 Q1012 NOSIG

Laikas: 21:46 (14:46 UTC)

Prognozė

Ataskaita buvo paskelbta 3 valandos ir 46 minutes, ne 11:00 UTC
Prognozė galioja nuo 29 metu 12 UTC su 30 metu 18 UTC
Vėjas 8 kt iš Vakarų/Pietvakarių
Matomumas 10 km arba daugiau
Išsisklaidę debesys ne aukštis 1700 ft
Laikinai
nuo 30 metu 07 UTC su 30 metu 10 UTC
Vėjas 16 kt iš Vakarų/Pietvakarių su gūsio iki 28 kt
Matomumas: 3000 m
Su prošvaistėmis ne aukštis 1300 ft
Išsisklaidę debesys ne aukštis 1500 ft, Liūtiniai kamuoliniai debesys.
perkūnija, lietus

TAF: VVTS 291100Z 2912/3018 24008KT 9999 SCT017 TEMPO 3007/3010 24016G28KT 3000 TSRA BKN013 SCT015CB

Orai ataskaitas ir orų prognozės (METAR, TAF).

turimą stotys yra geltonos ir raudonos taškus žemėlapyje.

Perkelti pele per norėdami pamatyti stoties vardą.

Tada spustelėkite, norėdami matyti oro stebėjimo ir prognozės.

Norėdami pakeisti žemėlapį: spustelėkite ant žalios mygtukų su juodo kryžiaus žemyn,; žalią mygtuką su brūkšneliu, jei norite nutolinti; arba žalių rodyklių gretimoms žemėlapius.


METAR-TAF: